sensor_id;sensor_type;location;lat;lon;timestamp;pressure;altitude;pressure_sealevel;temperature;humidity
13732;BME280;6937;56.096;12.664;2022-10-17T00:02:13;102628.19;;;10.76;100.00
13732;BME280;6937;56.096;12.664;2022-10-17T00:04:38;102643.41;;;10.76;100.00
13732;BME280;6937;56.096;12.664;2022-10-17T00:07:04;102630.47;;;10.65;100.00
13732;BME280;6937;56.096;12.664;2022-10-17T00:09:29;102620.50;;;10.48;100.00
13732;BME280;6937;56.096;12.664;2022-10-17T00:11:54;102673.25;;;10.65;100.00
13732;BME280;6937;56.096;12.664;2022-10-17T00:14:20;102610.16;;;10.19;100.00
13732;BME280;6937;56.096;12.664;2022-10-17T00:16:45;102618.38;;;10.14;100.00
13732;BME280;6937;56.096;12.664;2022-10-17T00:19:10;102718.94;;;10.60;100.00
13732;BME280;6937;56.096;12.664;2022-10-17T00:21:36;102710.94;;;10.59;100.00
13732;BME280;6937;56.096;12.664;2022-10-17T00:24:01;102682.91;;;10.47;100.00
13732;BME280;6937;56.096;12.664;2022-10-17T00:26:27;102627.34;;;10.12;100.00
13732;BME280;6937;56.096;12.664;2022-10-17T00:28:55;102647.75;;;10.13;100.00
13732;BME280;6937;56.096;12.664;2022-10-17T00:31:22;102722.88;;;10.50;100.00
13732;BME280;6937;56.096;12.664;2022-10-17T00:33:47;102732.47;;;10.56;100.00
13732;BME280;6937;56.096;12.664;2022-10-17T00:36:19;102726.13;;;10.58;100.00
13732;BME280;6937;56.096;12.664;2022-10-17T00:38:46;102731.34;;;10.61;100.00
13732;BME280;6937;56.096;12.664;2022-10-17T00:41:14;102681.88;;;10.30;100.00
13732;BME280;6937;56.096;12.664;2022-10-17T00:43:51;102726.06;;;10.60;100.00
13732;BME280;6937;56.096;12.664;2022-10-17T00:46:18;102742.03;;;10.61;100.00
13732;BME280;6937;56.096;12.664;2022-10-17T00:48:44;102734.22;;;10.57;100.00
13732;BME280;6937;56.096;12.664;2022-10-17T00:51:10;102658.72;;;10.07;100.00
13732;BME280;6937;56.096;12.664;2022-10-17T00:53:36;102748.38;;;10.59;100.00
13732;BME280;6937;56.096;12.664;2022-10-17T00:56:03;102739.50;;;10.58;100.00
13732;BME280;6937;56.096;12.664;2022-10-17T00:58:29;102756.16;;;10.65;100.00
13732;BME280;6937;56.096;12.664;2022-10-17T01:00:54;102727.78;;;10.61;100.00
13732;BME280;6937;56.096;12.664;2022-10-17T01:03:19;102730.59;;;10.58;100.00
13732;BME280;6937;56.096;12.664;2022-10-17T01:05:45;102743.84;;;10.61;100.00
13732;BME280;6937;56.096;12.664;2022-10-17T01:08:11;102755.41;;;10.61;100.00
13732;BME280;6937;56.096;12.664;2022-10-17T01:11:02;102768.69;;;10.64;100.00
13732;BME280;6937;56.096;12.664;2022-10-17T01:13:38;102685.78;;;10.21;100.00
13732;BME280;6937;56.096;12.664;2022-10-17T01:16:21;102750.28;;;10.57;100.00
13732;BME280;6937;56.096;12.664;2022-10-17T01:22:37;102781.47;;;10.56;100.00
13732;BME280;6937;56.096;12.664;2022-10-17T01:28:17;102726.13;;;10.15;100.00
13732;BME280;6937;56.096;12.664;2022-10-17T01:33:29;102798.47;;;10.32;100.00
13732;BME280;6937;56.096;12.664;2022-10-17T01:36:02;102755.19;;;9.99;100.00
13732;BME280;6937;56.096;12.664;2022-10-17T01:38:33;102833.97;;;10.36;100.00
13732;BME280;6937;56.096;12.664;2022-10-17T01:43:46;102848.63;;;10.26;100.00
13732;BME280;6937;56.096;12.664;2022-10-17T01:48:46;102877.31;;;10.21;100.00
13732;BME280;6937;56.096;12.664;2022-10-17T01:51:17;102915.88;;;10.38;100.00
13732;BME280;6937;56.096;12.664;2022-10-17T01:53:51;102916.97;;;10.33;100.00
13732;BME280;6937;56.096;12.664;2022-10-17T01:56:19;102940.09;;;10.34;100.00
13732;BME280;6937;56.096;12.664;2022-10-17T01:58:50;102957.81;;;10.36;100.00
13732;BME280;6937;56.096;12.664;2022-10-17T02:01:18;102958.94;;;10.31;100.00
13732;BME280;6937;56.096;12.664;2022-10-17T02:03:45;102951.75;;;10.31;100.00
13732;BME280;6937;56.096;12.664;2022-10-17T02:06:13;102968.34;;;10.41;100.00
13732;BME280;6937;56.096;12.664;2022-10-17T02:08:44;102962.00;;;10.43;100.00
13732;BME280;6937;56.096;12.664;2022-10-17T02:11:19;102976.13;;;10.47;100.00
13732;BME280;6937;56.096;12.664;2022-10-17T02:14:12;102939.97;;;10.37;100.00
13732;BME280;6937;56.096;12.664;2022-10-17T02:22:29;102902.72;;;10.07;100.00
13732;BME280;6937;56.096;12.664;2022-10-17T02:25:14;102965.44;;;10.47;100.00
13732;BME280;6937;56.096;12.664;2022-10-17T02:27:55;102976.97;;;10.49;100.00
13732;BME280;6937;56.096;12.664;2022-10-17T02:30:36;102954.91;;;10.42;100.00
13732;BME280;6937;56.096;12.664;2022-10-17T02:35:38;102968.06;;;10.48;100.00
13732;BME280;6937;56.096;12.664;2022-10-17T02:38:07;102944.56;;;10.33;100.00
13732;BME280;6937;56.096;12.664;2022-10-17T02:40:35;102954.84;;;10.44;100.00
13732;BME280;6937;56.096;12.664;2022-10-17T02:43:01;102966.31;;;10.47;100.00
13732;BME280;6937;56.096;12.664;2022-10-17T02:45:28;102893.94;;;10.04;100.00
13732;BME280;6937;56.096;12.664;2022-10-17T02:47:58;102916.59;;;10.18;100.00
13732;BME280;6937;56.096;12.664;2022-10-17T02:50:34;102957.56;;;10.42;100.00
13732;BME280;6937;56.096;12.664;2022-10-17T02:53:16;102969.63;;;10.54;100.00
13732;BME280;6937;56.096;12.664;2022-10-17T02:55:56;102944.03;;;10.47;100.00
13732;BME280;6937;56.096;12.664;2022-10-17T02:58:24;102932.59;;;10.43;100.00
13732;BME280;6937;56.096;12.664;2022-10-17T03:00:52;102933.13;;;10.53;100.00
13732;BME280;6937;56.096;12.664;2022-10-17T03:03:20;102897.63;;;10.49;100.00
13732;BME280;6937;56.096;12.664;2022-10-17T03:05:46;102889.53;;;10.51;100.00
13732;BME280;6937;56.096;12.664;2022-10-17T03:08:11;102851.50;;;10.43;100.00
13732;BME280;6937;56.096;12.664;2022-10-17T03:10:37;102853.16;;;10.47;100.00
13732;BME280;6937;56.096;12.664;2022-10-17T03:13:02;102828.28;;;10.45;100.00
13732;BME280;6937;56.096;12.664;2022-10-17T03:15:27;102775.28;;;10.09;100.00
13732;BME280;6937;56.096;12.664;2022-10-17T03:17:54;102762.97;;;10.05;100.00
13732;BME280;6937;56.096;12.664;2022-10-17T03:20:19;102811.53;;;10.40;100.00
13732;BME280;6937;56.096;12.664;2022-10-17T03:22:45;102775.25;;;10.34;100.00
13732;BME280;6937;56.096;12.664;2022-10-17T03:25:10;102781.47;;;10.35;100.00
13732;BME280;6937;56.096;12.664;2022-10-17T03:27:35;102803.66;;;10.37;100.00
13732;BME280;6937;56.096;12.664;2022-10-17T03:30:01;102813.28;;;10.41;100.00
13732;BME280;6937;56.096;12.664;2022-10-17T03:32:26;102747.28;;;9.96;100.00
13732;BME280;6937;56.096;12.664;2022-10-17T03:34:51;102822.34;;;10.37;100.00
13732;BME280;6937;56.096;12.664;2022-10-17T03:37:17;102815.38;;;10.33;100.00
13732;BME280;6937;56.096;12.664;2022-10-17T03:39:42;102750.31;;;9.87;100.00
13732;BME280;6937;56.096;12.664;2022-10-17T03:42:07;102818.47;;;10.22;100.00
13732;BME280;6937;56.096;12.664;2022-10-17T03:44:33;102850.66;;;10.19;100.00
13732;BME280;6937;56.096;12.664;2022-10-17T03:46:58;102819.75;;;9.87;100.00
13732;BME280;6937;56.096;12.664;2022-10-17T03:49:24;102892.66;;;10.15;100.00
13732;BME280;6937;56.096;12.664;2022-10-17T03:51:49;102875.09;;;10.08;100.00
13732;BME280;6937;56.096;12.664;2022-10-17T03:54:14;102924.50;;;10.22;100.00
13732;BME280;6937;56.096;12.664;2022-10-17T03:56:40;102881.13;;;9.89;100.00
13732;BME280;6937;56.096;12.664;2022-10-17T03:59:05;102937.91;;;10.20;100.00
13732;BME280;6937;56.096;12.664;2022-10-17T04:01:30;102959.25;;;10.22;100.00
13732;BME280;6937;56.096;12.664;2022-10-17T04:03:56;102926.59;;;9.87;100.00
13732;BME280;6937;56.096;12.664;2022-10-17T04:06:22;102989.44;;;10.24;100.00
13732;BME280;6937;56.096;12.664;2022-10-17T04:08:48;102924.03;;;9.84;100.00
13732;BME280;6937;56.096;12.664;2022-10-17T04:11:16;102929.47;;;9.81;100.00
13732;BME280;6937;56.096;12.664;2022-10-17T04:13:43;103011.66;;;10.26;100.00
13732;BME280;6937;56.096;12.664;2022-10-17T04:16:14;103033.78;;;10.31;100.00
13732;BME280;6937;56.096;12.664;2022-10-17T04:18:40;103039.16;;;10.29;100.00
13732;BME280;6937;56.096;12.664;2022-10-17T04:21:06;103061.97;;;10.39;100.00
13732;BME280;6937;56.096;12.664;2022-10-17T04:23:32;103034.63;;;10.31;100.00
13732;BME280;6937;56.096;12.664;2022-10-17T04:25:58;103016.59;;;10.38;100.00
13732;BME280;6937;56.096;12.664;2022-10-17T04:28:24;102973.25;;;10.28;100.00
13732;BME280;6937;56.096;12.664;2022-10-17T04:31:01;102921.06;;;10.18;100.00
13732;BME280;6937;56.096;12.664;2022-10-17T04:33:28;102914.03;;;10.15;100.00
13732;BME280;6937;56.096;12.664;2022-10-17T04:35:58;102862.06;;;9.99;100.00
13732;BME280;6937;56.096;12.664;2022-10-17T04:38:24;102854.78;;;10.03;100.00
13732;BME280;6937;56.096;12.664;2022-10-17T04:40:50;102858.84;;;10.14;100.00
13732;BME280;6937;56.096;12.664;2022-10-17T04:43:15;102774.78;;;9.75;100.00
13732;BME280;6937;56.096;12.664;2022-10-17T04:45:41;102815.09;;;10.17;100.00
13732;BME280;6937;56.096;12.664;2022-10-17T04:48:06;102790.91;;;10.20;100.00
13732;BME280;6937;56.096;12.664;2022-10-17T04:50:31;102764.19;;;10.20;100.00
13732;BME280;6937;56.096;12.664;2022-10-17T04:52:57;102668.34;;;9.89;100.00
13732;BME280;6937;56.096;12.664;2022-10-17T04:55:22;102702.50;;;10.26;100.00
13732;BME280;6937;56.096;12.664;2022-10-17T04:57:47;102650.91;;;10.24;100.00
13732;BME280;6937;56.096;12.664;2022-10-17T05:00:13;102616.16;;;10.24;100.00
13732;BME280;6937;56.096;12.664;2022-10-17T05:02:38;102594.03;;;10.21;100.00
13732;BME280;6937;56.096;12.664;2022-10-17T05:05:04;102581.38;;;10.26;100.00
13732;BME280;6937;56.096;12.664;2022-10-17T05:07:29;102577.78;;;10.27;100.00
13732;BME280;6937;56.096;12.664;2022-10-17T05:09:55;102564.41;;;10.27;100.00
13732;BME280;6937;56.096;12.664;2022-10-17T05:12:20;102586.59;;;10.29;100.00
13732;BME280;6937;56.096;12.664;2022-10-17T05:14:45;102605.06;;;10.35;100.00
13732;BME280;6937;56.096;12.664;2022-10-17T05:17:11;102605.06;;;10.35;100.00
13732;BME280;6937;56.096;12.664;2022-10-17T05:19:36;102563.59;;;10.03;100.00
13732;BME280;6937;56.096;12.664;2022-10-17T05:22:01;102585.69;;;10.06;100.00
13732;BME280;6937;56.096;12.664;2022-10-17T05:24:27;102666.09;;;10.45;100.00
13732;BME280;6937;56.096;12.664;2022-10-17T05:26:52;102596.38;;;10.06;100.00
13732;BME280;6937;56.096;12.664;2022-10-17T05:29:17;102665.94;;;10.48;100.00
13732;BME280;6937;56.096;12.664;2022-10-17T05:31:43;102607.06;;;10.06;100.00
13732;BME280;6937;56.096;12.664;2022-10-17T05:34:08;102705.97;;;10.50;100.00
13732;BME280;6937;56.096;12.664;2022-10-17T05:36:34;102695.28;;;10.50;100.00
13732;BME280;6937;56.096;12.664;2022-10-17T05:38:59;102704.13;;;10.52;100.00
13732;BME280;6937;56.096;12.664;2022-10-17T05:41:24;102727.25;;;10.53;100.00
13732;BME280;6937;56.096;12.664;2022-10-17T05:43:50;102734.41;;;10.52;100.00
13732;BME280;6937;56.096;12.664;2022-10-17T05:46:15;102736.25;;;10.50;100.00
13732;BME280;6937;56.096;12.664;2022-10-17T05:48:41;102736.38;;;10.47;100.00
13732;BME280;6937;56.096;12.664;2022-10-17T05:51:08;102727.56;;;10.45;100.00
13732;BME280;6937;56.096;12.664;2022-10-17T05:53:37;102710.88;;;10.39;100.00
13732;BME280;6937;56.096;12.664;2022-10-17T05:56:04;102657.53;;;10.15;100.00
13732;BME280;6937;56.096;12.664;2022-10-17T05:58:31;102684.38;;;10.34;100.00
13732;BME280;6937;56.096;12.664;2022-10-17T06:01:02;102672.06;;;10.30;100.00
13732;BME280;6937;56.096;12.664;2022-10-17T06:03:28;102661.72;;;10.21;100.00
13732;BME280;6937;56.096;12.664;2022-10-17T06:05:54;102665.28;;;10.22;100.00
13732;BME280;6937;56.096;12.664;2022-10-17T06:08:19;102679.34;;;10.27;100.00
13732;BME280;6937;56.096;12.664;2022-10-17T06:10:49;102696.03;;;10.32;100.00
13732;BME280;6937;56.096;12.664;2022-10-17T06:13:16;102731.59;;;10.34;100.00
13732;BME280;6937;56.096;12.664;2022-10-17T06:15:42;102702.50;;;10.03;100.00
13732;BME280;6937;56.096;12.664;2022-10-17T06:18:08;102778.78;;;10.35;100.00
13732;BME280;6937;56.096;12.664;2022-10-17T06:20:33;102821.31;;;10.41;100.00
13732;BME280;6937;56.096;12.664;2022-10-17T06:22:58;102852.47;;;10.42;100.00
13732;BME280;6937;56.096;12.664;2022-10-17T06:25:24;102893.31;;;10.45;100.00
13732;BME280;6937;56.096;12.664;2022-10-17T06:27:49;102941.22;;;10.51;100.00
13732;BME280;6937;56.096;12.664;2022-10-17T06:30:14;102984.72;;;10.56;100.00
13732;BME280;6937;56.096;12.664;2022-10-17T06:32:40;102997.41;;;10.50;100.00
13732;BME280;6937;56.096;12.664;2022-10-17T06:35:07;103051.31;;;10.62;100.00
13732;BME280;6937;56.096;12.664;2022-10-17T06:37:33;103067.50;;;10.59;100.00
13732;BME280;6937;56.096;12.664;2022-10-17T06:39:59;103067.41;;;10.61;100.00
13732;BME280;6937;56.096;12.664;2022-10-17T06:42:24;103095.88;;;10.63;100.00
13732;BME280;6937;56.096;12.664;2022-10-17T06:44:50;103103.81;;;10.65;100.00
13732;BME280;6937;56.096;12.664;2022-10-17T06:47:15;103087.19;;;10.57;100.00
13732;BME280;6937;56.096;12.664;2022-10-17T06:49:40;103117.25;;;10.63;100.00
13732;BME280;6937;56.096;12.664;2022-10-17T06:52:06;103131.41;;;10.67;100.00
13732;BME280;6937;56.096;12.664;2022-10-17T06:54:31;103149.91;;;10.73;100.00
13732;BME280;6937;56.096;12.664;2022-10-17T06:56:56;103158.88;;;10.72;100.00
13732;BME280;6937;56.096;12.664;2022-10-17T06:59:22;103107.41;;;10.39;100.00
13732;BME280;6937;56.096;12.664;2022-10-17T07:01:47;103208.22;;;10.88;100.00
13732;BME280;6937;56.096;12.664;2022-10-17T07:04:13;103152.41;;;10.53;100.00
13732;BME280;6937;56.096;12.664;2022-10-17T07:06:38;103239.00;;;11.01;100.00
13732;BME280;6937;56.096;12.664;2022-10-17T07:09:04;103217.09;;;10.90;100.00
13732;BME280;6937;56.096;12.664;2022-10-17T07:11:32;103258.34;;;11.09;100.00
13732;BME280;6937;56.096;12.664;2022-10-17T07:13:59;103249.09;;;10.93;100.00
13732;BME280;6937;56.096;12.664;2022-10-17T07:16:24;103296.22;;;11.24;100.00
13732;BME280;6937;56.096;12.664;2022-10-17T07:18:50;103266.53;;;11.05;100.00
13732;BME280;6937;56.096;12.664;2022-10-17T07:21:15;103302.94;;;11.35;100.00
13732;BME280;6937;56.096;12.664;2022-10-17T07:23:41;103304.59;;;11.39;100.00
13732;BME280;6937;56.096;12.664;2022-10-17T07:26:10;103299.88;;;11.46;100.00
13732;BME280;6937;56.096;12.664;2022-10-17T07:28:37;103302.31;;;11.52;100.00
13732;BME280;6937;56.096;12.664;2022-10-17T07:31:11;103271.41;;;11.43;100.00
13732;BME280;6937;56.096;12.664;2022-10-17T07:33:37;103278.81;;;11.60;100.00
13732;BME280;6937;56.096;12.664;2022-10-17T07:36:04;103283.16;;;11.64;100.00
13732;BME280;6937;56.096;12.664;2022-10-17T07:38:30;103302.63;;;11.69;100.00
13732;BME280;6937;56.096;12.664;2022-10-17T07:40:59;103290.00;;;11.73;100.00
13732;BME280;6937;56.096;12.664;2022-10-17T07:43:25;103229.09;;;11.53;100.00
13732;BME280;6937;56.096;12.664;2022-10-17T07:45:52;103273.75;;;11.77;100.00
13732;BME280;6937;56.096;12.664;2022-10-17T07:48:19;103255.81;;;11.79;100.00
13732;BME280;6937;56.096;12.664;2022-10-17T07:50:44;103199.75;;;11.50;100.00
13732;BME280;6937;56.096;12.664;2022-10-17T07:53:10;103261.94;;;11.83;100.00
13732;BME280;6937;56.096;12.664;2022-10-17T07:55:36;103271.59;;;11.87;100.00
13732;BME280;6937;56.096;12.664;2022-10-17T07:58:02;103261.00;;;11.84;100.00
13732;BME280;6937;56.096;12.664;2022-10-17T08:00:27;103275.56;;;12.00;100.00
13732;BME280;6937;56.096;12.664;2022-10-17T08:02:53;103243.38;;;12.00;100.00
13732;BME280;6937;56.096;12.664;2022-10-17T08:05:18;103177.78;;;11.63;100.00
13732;BME280;6937;56.096;12.664;2022-10-17T08:07:43;103183.50;;;11.78;100.00
13732;BME280;6937;56.096;12.664;2022-10-17T08:10:12;103237.38;;;12.17;100.00
13732;BME280;6937;56.096;12.664;2022-10-17T08:12:37;103207.75;;;12.20;100.00
13732;BME280;6937;56.096;12.664;2022-10-17T08:15:04;103166.44;;;12.25;100.00
13732;BME280;6937;56.096;12.664;2022-10-17T08:17:29;103146.59;;;12.29;100.00
13732;BME280;6937;56.096;12.664;2022-10-17T08:19:55;103129.22;;;12.38;100.00
13732;BME280;6937;56.096;12.664;2022-10-17T08:22:20;103010.94;;;12.03;100.00
13732;BME280;6937;56.096;12.664;2022-10-17T08:24:45;103032.19;;;12.48;100.00
13732;BME280;6937;56.096;12.664;2022-10-17T08:27:11;102974.78;;;12.52;100.00
13732;BME280;6937;56.096;12.664;2022-10-17T08:29:40;102797.25;;;12.07;100.00
13732;BME280;6937;56.096;12.664;2022-10-17T08:32:06;102805.59;;;12.57;100.00
13732;BME280;6937;56.096;12.664;2022-10-17T08:34:33;102648.63;;;12.31;100.00
13732;BME280;6937;56.096;12.664;2022-10-17T08:36:59;102533.25;;;12.33;100.00
13732;BME280;6937;56.096;12.664;2022-10-17T08:39:24;102516.81;;;12.73;100.00
13732;BME280;6937;56.096;12.664;2022-10-17T08:45:04;102230.09;;;12.67;100.00
13732;BME280;6937;56.096;12.664;2022-10-17T08:50:10;102066.38;;;12.83;100.00
13732;BME280;6937;56.096;12.664;2022-10-17T08:52:47;101969.03;;;12.81;100.00
13732;BME280;6937;56.096;12.664;2022-10-17T08:55:17;101867.47;;;12.60;100.00
13732;BME280;6937;56.096;12.664;2022-10-17T08:57:47;101852.09;;;12.91;100.00
13732;BME280;6937;56.096;12.664;2022-10-17T09:00:20;101779.19;;;12.84;100.00
13732;BME280;6937;56.096;12.664;2022-10-17T09:03:13;101713.38;;;12.79;100.00
13732;BME280;6937;56.096;12.664;2022-10-17T09:05:49;101697.97;;;12.95;100.00
13732;BME280;6937;56.096;12.664;2022-10-17T09:11:02;101604.63;;;13.00;100.00
13732;BME280;6937;56.096;12.664;2022-10-17T09:13:57;101579.38;;;13.02;100.00
13732;BME280;6937;56.096;12.664;2022-10-17T09:16:36;101555.78;;;13.07;100.00
13732;BME280;6937;56.096;12.664;2022-10-17T09:21:44;101511.84;;;13.08;100.00
13732;BME280;6937;56.096;12.664;2022-10-17T09:24:18;101469.81;;;12.96;100.00
13732;BME280;6937;56.096;12.664;2022-10-17T09:26:46;101478.63;;;13.11;100.00
13732;BME280;6937;56.096;12.664;2022-10-17T09:29:24;101434.69;;;12.99;100.00
13732;BME280;6937;56.096;12.664;2022-10-17T09:32:11;101477.38;;;13.28;100.00
13732;BME280;6937;56.096;12.664;2022-10-17T09:34:39;101475.34;;;13.31;100.00
13732;BME280;6937;56.096;12.664;2022-10-17T09:37:11;101465.78;;;13.27;100.00
13732;BME280;6937;56.096;12.664;2022-10-17T09:39:37;101467.50;;;13.41;100.00
13732;BME280;6937;56.096;12.664;2022-10-17T09:42:02;101450.19;;;13.45;100.00
13732;BME280;6937;56.096;12.664;2022-10-17T09:44:33;101430.41;;;13.46;100.00
13732;BME280;6937;56.096;12.664;2022-10-17T09:47:12;101406.13;;;13.47;100.00
13732;BME280;6937;56.096;12.664;2022-10-17T09:49:44;101413.38;;;13.58;100.00
13732;BME280;6937;56.096;12.664;2022-10-17T09:52:20;101404.97;;;13.63;100.00
13732;BME280;6937;56.096;12.664;2022-10-17T09:54:49;101394.00;;;13.66;100.00
13732;BME280;6937;56.096;12.664;2022-10-17T09:57:17;101326.28;;;13.38;100.00
13732;BME280;6937;56.096;12.664;2022-10-17T09:59:46;101379.16;;;13.84;100.00
13732;BME280;6937;56.096;12.664;2022-10-17T10:05:14;101362.38;;;13.93;100.00
13732;BME280;6937;56.096;12.664;2022-10-17T10:07:38;101362.97;;;13.96;100.00
13732;BME280;6937;56.096;12.664;2022-10-17T10:10:07;101364.47;;;14.00;100.00
13732;BME280;6937;56.096;12.664;2022-10-17T10:13:09;101359.09;;;14.00;100.00
13732;BME280;6937;56.096;12.664;2022-10-17T10:15:42;101292.81;;;13.77;100.00
13732;BME280;6937;56.096;12.664;2022-10-17T10:18:27;101337.72;;;14.10;100.00
13732;BME280;6937;56.096;12.664;2022-10-17T10:21:22;101318.06;;;14.10;100.00
13732;BME280;6937;56.096;12.664;2022-10-17T10:24:13;101305.34;;;14.23;100.00
13732;BME280;6937;56.096;12.664;2022-10-17T10:26:39;101322.09;;;14.26;100.00
13732;BME280;6937;56.096;12.664;2022-10-17T10:31:42;101329.81;;;14.31;100.00
13732;BME280;6937;56.096;12.664;2022-10-17T10:34:28;101321.41;;;14.35;100.00
13732;BME280;6937;56.096;12.664;2022-10-17T10:37:00;101254.38;;;13.99;100.00
13732;BME280;6937;56.096;12.664;2022-10-17T10:39:31;101270.66;;;14.09;100.00
13732;BME280;6937;56.096;12.664;2022-10-17T10:41:59;101334.00;;;14.57;100.00
13732;BME280;6937;56.096;12.664;2022-10-17T10:44:28;101331.06;;;14.60;100.00
13732;BME280;6937;56.096;12.664;2022-10-17T10:47:30;101326.53;;;14.72;100.00
13732;BME280;6937;56.096;12.664;2022-10-17T10:52:42;101356.63;;;14.88;100.00
13732;BME280;6937;56.096;12.664;2022-10-17T10:55:22;101338.75;;;14.87;100.00
13732;BME280;6937;56.096;12.664;2022-10-17T10:57:51;101371.91;;;14.98;100.00
13732;BME280;6937;56.096;12.664;2022-10-17T11:00:21;101340.94;;;14.93;100.00
13732;BME280;6937;56.096;12.664;2022-10-17T11:03:15;101348.28;;;15.02;100.00
13732;BME280;6937;56.096;12.664;2022-10-17T11:06:03;101342.28;;;14.98;100.00
13732;BME280;6937;56.096;12.664;2022-10-17T11:08:34;101366.00;;;15.05;100.00
13732;BME280;6937;56.096;12.664;2022-10-17T11:11:25;101333.72;;;14.93;100.00
13732;BME280;6937;56.096;12.664;2022-10-17T11:14:02;101353.03;;;15.10;100.00
13732;BME280;6937;56.096;12.664;2022-10-17T11:16:39;101368.94;;;15.13;100.00
13732;BME280;6937;56.096;12.664;2022-10-17T11:19:44;101351.28;;;15.20;100.00
13732;BME280;6937;56.096;12.664;2022-10-17T11:22:36;101351.56;;;15.17;100.00
13732;BME280;6937;56.096;12.664;2022-10-17T11:25:05;101346.66;;;15.22;100.00
13732;BME280;6937;56.096;12.664;2022-10-17T11:27:34;101361.31;;;15.29;100.00
13732;BME280;6937;56.096;12.664;2022-10-17T11:30:00;101359.34;;;15.31;100.00
13732;BME280;6937;56.096;12.664;2022-10-17T11:32:30;101353.69;;;15.34;100.00
13732;BME280;6937;56.096;12.664;2022-10-17T11:35:05;101363.38;;;15.36;100.00
13732;BME280;6937;56.096;12.664;2022-10-17T11:37:37;101363.97;;;15.40;100.00
13732;BME280;6937;56.096;12.664;2022-10-17T11:40:13;101356.75;;;15.40;100.00
13732;BME280;6937;56.096;12.664;2022-10-17T11:42:47;101357.59;;;15.52;100.00
13732;BME280;6937;56.096;12.664;2022-10-17T11:45:19;101369.16;;;15.64;100.00
13732;BME280;6937;56.096;12.664;2022-10-17T11:47:49;101358.53;;;15.62;100.00
13732;BME280;6937;56.096;12.664;2022-10-17T11:50:23;101365.19;;;15.79;100.00
13732;BME280;6937;56.096;12.664;2022-10-17T11:52:51;101384.84;;;15.90;100.00
13732;BME280;6937;56.096;12.664;2022-10-17T11:55:20;101375.69;;;15.93;100.00
13732;BME280;6937;56.096;12.664;2022-10-17T11:58:08;101334.97;;;15.96;100.00
13732;BME280;6937;56.096;12.664;2022-10-17T12:03:38;101321.81;;;16.03;100.00
13732;BME280;6937;56.096;12.664;2022-10-17T12:08:55;101337.31;;;16.10;100.00
13732;BME280;6937;56.096;12.664;2022-10-17T12:13:59;101339.63;;;16.15;100.00
13732;BME280;6937;56.096;12.664;2022-10-17T12:21:25;101322.63;;;16.24;100.00
13732;BME280;6937;56.096;12.664;2022-10-17T12:23:52;101336.03;;;16.35;100.00
13732;BME280;6937;56.096;12.664;2022-10-17T12:26:25;101334.53;;;16.42;100.00
13732;BME280;6937;56.096;12.664;2022-10-17T12:28:52;101317.59;;;16.30;100.00
13732;BME280;6937;56.096;12.664;2022-10-17T12:33:58;101298.03;;;16.38;100.00
13732;BME280;6937;56.096;12.664;2022-10-17T12:46:54;101354.25;;;16.42;100.00
13732;BME280;6937;56.096;12.664;2022-10-17T12:49:43;101348.44;;;16.37;100.00
13732;BME280;6937;56.096;12.664;2022-10-17T12:55:11;101302.06;;;16.02;100.00
13732;BME280;6937;56.096;12.664;2022-10-17T12:58:00;101359.22;;;16.37;100.00
13732;BME280;6937;56.096;12.664;2022-10-17T13:00:40;101376.00;;;16.41;100.00
13732;BME280;6937;56.096;12.664;2022-10-17T13:03:14;101371.69;;;16.38;100.00
13732;BME280;6937;56.096;12.664;2022-10-17T13:05:52;101361.06;;;16.37;100.00
13732;BME280;6937;56.096;12.664;2022-10-17T13:08:24;101359.81;;;16.41;100.00
13732;BME280;6937;56.096;12.664;2022-10-17T13:10:52;101287.88;;;16.00;100.00
13732;BME280;6937;56.096;12.664;2022-10-17T13:16:06;101290.16;;;16.05;100.00
13732;BME280;6937;56.096;12.664;2022-10-17T13:18:32;101353.94;;;16.36;100.00
13732;BME280;6937;56.096;12.664;2022-10-17T13:21:03;101343.44;;;16.33;100.00
13732;BME280;6937;56.096;12.664;2022-10-17T13:23:34;101335.59;;;16.30;100.00
13732;BME280;6937;56.096;12.664;2022-10-17T13:26:24;101334.19;;;16.35;100.00
13732;BME280;6937;56.096;12.664;2022-10-17T13:29:03;101342.56;;;16.32;100.00
13732;BME280;6937;56.096;12.664;2022-10-17T13:31:35;101323.06;;;16.19;100.00
13732;BME280;6937;56.096;12.664;2022-10-17T13:34:04;101353.66;;;16.39;100.00
13732;BME280;6937;56.096;12.664;2022-10-17T13:36:31;101328.22;;;16.32;100.00
13732;BME280;6937;56.096;12.664;2022-10-17T13:38:59;101337.44;;;16.29;100.00
13732;BME280;6937;56.096;12.664;2022-10-17T13:41:31;101314.09;;;16.19;100.00
13732;BME280;6937;56.096;12.664;2022-10-17T13:44:00;101352.69;;;16.40;100.00
13732;BME280;6937;56.096;12.664;2022-10-17T13:46:29;101362.00;;;16.26;100.00
13732;BME280;6937;56.096;12.664;2022-10-17T13:48:57;101394.56;;;16.34;100.00
13732;BME280;6937;56.096;12.664;2022-10-17T13:51:25;101420.25;;;16.38;100.00
13732;BME280;6937;56.096;12.664;2022-10-17T13:53:51;101439.41;;;16.35;100.00
13732;BME280;6937;56.096;12.664;2022-10-17T13:56:22;101439.94;;;16.29;100.00
13732;BME280;6937;56.096;12.664;2022-10-17T13:59:21;101451.34;;;16.33;100.00
13732;BME280;6937;56.096;12.664;2022-10-17T14:01:47;101476.16;;;16.27;100.00
13732;BME280;6937;56.096;12.664;2022-10-17T14:04:14;101478.84;;;16.27;100.00
13732;BME280;6937;56.096;12.664;2022-10-17T14:06:44;101493.16;;;16.27;100.00
13732;BME280;6937;56.096;12.664;2022-10-17T14:14:23;101557.44;;;16.22;100.00